createdAt,value
2022-12-06T00:03:08.968Z,178.80
2022-12-06T00:08:31.050Z,150.50
2022-12-06T00:14:04.423Z,173.50
2022-12-06T00:19:26.441Z,151.60
2022-12-06T00:24:48.272Z,135.50
2022-12-06T00:30:10.617Z,115.00
2022-12-06T00:35:32.534Z,101.10
2022-12-06T00:41:01.798Z,114.90
2022-12-06T00:46:26.433Z,100.60
2022-12-06T00:51:48.555Z,103.30
2022-12-06T00:57:10.584Z,98.40
2022-12-06T01:02:32.114Z,96.70
2022-12-06T01:07:54.508Z,92.90
2022-12-06T01:13:16.167Z,91.50
2022-12-06T01:18:38.584Z,89.70
2022-12-06T01:24:00.529Z,88.40
2022-12-06T01:29:22.655Z,95.70
2022-12-06T01:34:45.390Z,100.10
2022-12-06T01:40:08.025Z,89.20
2022-12-06T01:45:30.152Z,96.00
2022-12-06T01:50:56.703Z,92.80
2022-12-06T01:56:19.329Z,84.20
2022-12-06T02:01:41.860Z,94.10
2022-12-06T02:07:04.091Z,102.50
2022-12-06T02:12:25.718Z,101.90
2022-12-06T02:17:57.404Z,98.00
2022-12-06T02:23:54.775Z,96.20
2022-12-06T02:29:51.288Z,100.20
2022-12-06T02:35:19.728Z,87.30
2022-12-06T02:46:12.474Z,82.80
2022-12-06T02:51:36.366Z,88.90
2022-12-06T02:56:58.192Z,83.80
2022-12-06T03:02:20.389Z,81.30
2022-12-06T03:07:46.143Z,85.40
2022-12-06T03:13:30.274Z,66.70
2022-12-06T03:19:03.870Z,71.00
2022-12-06T03:24:28.182Z,77.80
2022-12-06T03:29:53.925Z,69.20
2022-12-06T03:35:20.877Z,58.80
2022-12-06T03:40:45.811Z,65.50
2022-12-06T03:46:12.734Z,65.60
2022-12-06T03:51:36.492Z,66.70
2022-12-06T03:56:58.325Z,56.30
2022-12-06T04:02:19.952Z,58.90
2022-12-06T04:07:42.029Z,54.60
2022-12-06T04:13:06.030Z,61.70
2022-12-06T04:18:28.600Z,66.40
2022-12-06T04:23:52.003Z,70.60
2022-12-06T04:29:32.689Z,59.30
2022-12-06T04:35:13.235Z,56.30
2022-12-06T04:40:35.138Z,52.40
2022-12-06T04:45:57.039Z,59.00
2022-12-06T04:51:20.268Z,59.00
2022-12-06T04:56:41.796Z,69.30
2022-12-06T05:02:03.440Z,66.70
2022-12-06T05:07:25.454Z,80.20
2022-12-06T05:12:47.081Z,71.00
2022-12-06T05:18:08.909Z,69.70
2022-12-06T05:23:30.941Z,80.00
2022-12-06T05:28:53.985Z,80.30
2022-12-06T05:34:16.014Z,89.20
2022-12-06T05:39:37.528Z,65.80
2022-12-06T05:44:59.459Z,63.20
2022-12-06T05:50:21.054Z,66.60
2022-12-06T05:55:44.020Z,66.00
2022-12-06T06:01:06.915Z,85.20
2022-12-06T06:06:28.984Z,118.90
2022-12-06T06:11:51.014Z,116.80
2022-12-06T06:17:13.644Z,127.20
2022-12-06T06:22:36.978Z,134.80
2022-12-06T06:27:58.708Z,103.30
2022-12-06T06:33:21.439Z,81.50
2022-12-06T06:38:43.296Z,79.90
2022-12-06T06:44:05.198Z,79.20
2022-12-06T06:49:27.059Z,76.10
2022-12-06T06:54:49.085Z,78.80
2022-12-06T07:00:11.841Z,79.00
2022-12-06T07:05:33.719Z,72.90
2022-12-06T07:10:55.952Z,68.50
2022-12-06T07:16:18.463Z,73.00
2022-12-06T07:21:40.616Z,79.80
2022-12-06T07:27:02.840Z,79.50
2022-12-06T07:32:24.870Z,69.10
2022-12-06T07:37:47.518Z,75.00
2022-12-06T07:43:29.206Z,71.90
2022-12-06T07:48:51.483Z,69.80
2022-12-06T07:54:14.264Z,64.70
2022-12-06T07:59:36.097Z,85.60
2022-12-06T08:04:58.832Z,103.60
2022-12-06T08:10:21.084Z,75.20
2022-12-06T08:15:42.706Z,75.10
2022-12-06T08:21:04.976Z,72.70
2022-12-06T08:26:27.042Z,69.00
2022-12-06T08:31:48.981Z,65.90
2022-12-06T08:37:12.108Z,61.20
2022-12-06T08:42:34.136Z,58.50
2022-12-06T08:47:56.167Z,62.30
2022-12-06T08:53:18.203Z,68.00
2022-12-06T08:58:40.225Z,73.90
2022-12-06T09:04:03.309Z,68.80
2022-12-06T09:09:25.589Z,82.80
2022-12-06T09:14:47.217Z,90.80
2022-12-06T09:20:10.239Z,160.90
2022-12-06T09:25:32.483Z,131.00
2022-12-06T09:30:54.230Z,119.10
2022-12-06T09:36:26.785Z,96.00
2022-12-06T09:42:14.928Z,81.80
2022-12-06T09:47:46.058Z,75.30
2022-12-06T09:53:20.665Z,84.10
2022-12-06T09:59:10.659Z,81.70
2022-12-06T10:04:42.434Z,89.30
2022-12-06T10:10:13.348Z,81.80
2022-12-06T10:15:44.146Z,82.10
2022-12-06T10:21:38.232Z,69.90
2022-12-06T10:27:10.126Z,77.40
2022-12-06T10:32:54.863Z,84.50
2022-12-06T10:38:22.654Z,70.40
2022-12-06T10:43:44.741Z,63.90
2022-12-06T10:49:27.944Z,65.90
2022-12-06T10:55:02.722Z,24.70
2022-12-06T11:00:26.558Z,30.90
2022-12-06T11:05:53.803Z,53.90
2022-12-06T11:11:18.947Z,47.30
2022-12-06T11:16:54.744Z,63.40
2022-12-06T11:22:32.270Z,40.90
2022-12-06T11:28:26.950Z,34.50
2022-12-06T11:33:48.835Z,54.30
2022-12-06T11:39:13.820Z,42.80
2022-12-06T11:44:50.128Z,34.60
2022-12-06T11:50:17.313Z,26.20
2022-12-06T11:55:47.668Z,37.00
2022-12-06T12:01:13.612Z,46.50
2022-12-06T12:06:36.983Z,33.00
2022-12-06T12:12:05.797Z,31.10
2022-12-06T12:17:31.680Z,31.50
2022-12-06T12:23:09.667Z,44.40
2022-12-06T12:28:33.100Z,54.10
2022-12-06T12:34:20.829Z,41.70
2022-12-06T12:39:51.925Z,34.40
2022-12-06T12:45:19.630Z,19.70
2022-12-06T12:50:52.831Z,37.40
2022-12-06T12:56:22.035Z,23.90
2022-12-06T13:01:48.357Z,33.50
2022-12-06T13:07:10.229Z,21.10
2022-12-06T13:12:51.025Z,33.30
2022-12-06T13:18:58.214Z,46.90
2022-12-06T13:24:26.735Z,28.00
2022-12-06T13:30:17.699Z,43.40
2022-12-06T13:35:43.577Z,39.40
2022-12-06T13:41:36.109Z,33.20
2022-12-06T13:47:26.528Z,36.70
2022-12-06T13:52:48.334Z,30.70
2022-12-06T13:58:10.164Z,26.70
2022-12-06T14:03:31.699Z,14.20
2022-12-06T14:08:54.720Z,22.10
2022-12-06T14:14:20.295Z,18.90
2022-12-06T14:19:45.413Z,16.60
2022-12-06T14:25:19.233Z,22.50
2022-12-06T14:30:43.862Z,30.90
2022-12-06T14:36:14.178Z,31.90
2022-12-06T14:42:00.191Z,36.90
2022-12-06T14:47:23.341Z,38.30
2022-12-06T14:52:56.747Z,29.80
2022-12-06T14:58:22.561Z,24.70
2022-12-06T15:03:44.757Z,24.80
2022-12-06T15:09:14.723Z,22.00
2022-12-06T15:14:39.565Z,19.80
2022-12-06T15:20:08.931Z,22.20
2022-12-06T15:25:30.762Z,22.70
2022-12-06T15:30:53.220Z,29.20
2022-12-06T15:36:24.484Z,22.20
2022-12-06T15:41:46.675Z,25.40
2022-12-06T15:47:11.009Z,35.00
2022-12-06T15:52:32.854Z,57.80
2022-12-06T15:57:54.767Z,49.80
2022-12-06T16:03:16.720Z,35.80
2022-12-06T16:08:39.028Z,30.30
2022-12-06T16:14:00.813Z,23.90
2022-12-06T16:19:22.451Z,34.20
2022-12-06T16:24:46.252Z,29.60
2022-12-06T16:30:12.167Z,31.30
2022-12-06T16:35:34.294Z,32.40
2022-12-06T16:40:59.679Z,27.00
2022-12-06T16:46:28.476Z,24.30
2022-12-06T16:51:51.425Z,29.80
2022-12-06T16:57:14.639Z,32.30
2022-12-06T17:02:36.515Z,32.00
2022-12-06T17:07:58.757Z,35.50
2022-12-06T17:13:20.343Z,36.10
2022-12-06T17:18:41.978Z,40.90
2022-12-06T17:24:04.677Z,38.50
2022-12-06T17:29:26.933Z,77.10
2022-12-06T17:34:48.863Z,40.70
2022-12-06T17:40:11.273Z,41.50
2022-12-06T17:45:32.999Z,30.90
2022-12-06T17:50:54.933Z,23.00
2022-12-06T17:56:30.330Z,24.70
2022-12-06T18:07:35.508Z,25.90
2022-12-06T18:13:01.314Z,33.90
2022-12-06T18:18:24.540Z,34.10
2022-12-06T18:24:13.164Z,43.20
2022-12-06T18:29:29.177Z,34.60
2022-12-06T18:34:51.301Z,29.70
2022-12-06T18:40:13.132Z,38.10
2022-12-06T18:45:35.327Z,72.60
2022-12-06T18:50:57.712Z,76.70
2022-12-06T18:56:22.431Z,50.10
2022-12-06T19:01:45.041Z,52.20
2022-12-06T19:07:06.912Z,48.10
2022-12-06T19:12:28.821Z,45.10
2022-12-06T19:17:51.755Z,43.60
2022-12-06T19:23:14.052Z,46.20
2022-12-06T19:28:38.544Z,42.00
2022-12-06T19:34:00.891Z,37.90
2022-12-06T19:39:24.196Z,34.70
2022-12-06T19:44:46.124Z,40.50
2022-12-06T19:50:08.760Z,38.80
2022-12-06T19:55:31.174Z,37.30
2022-12-06T20:00:53.565Z,43.40
2022-12-06T20:06:21.427Z,44.70
2022-12-06T20:12:02.935Z,54.20
2022-12-06T20:17:25.162Z,68.60
2022-12-06T20:22:47.523Z,58.30
2022-12-06T20:28:13.474Z,43.30
2022-12-06T20:33:35.595Z,45.20
2022-12-06T20:38:58.137Z,39.90
2022-12-06T20:44:20.899Z,41.10
2022-12-06T20:49:43.189Z,45.50
2022-12-06T20:55:05.921Z,43.40
2022-12-06T21:00:27.951Z,45.00
2022-12-06T21:05:55.138Z,32.60
2022-12-06T21:11:23.342Z,33.40
2022-12-06T21:16:45.782Z,38.80
2022-12-06T21:22:09.419Z,37.00
2022-12-06T21:27:31.278Z,48.60
2022-12-06T21:32:52.975Z,43.50
2022-12-06T21:38:16.007Z,43.00
2022-12-06T21:43:38.438Z,45.40
2022-12-06T21:49:00.970Z,40.60
2022-12-06T21:54:22.706Z,44.80
2022-12-06T21:59:44.530Z,50.70
2022-12-06T22:05:06.358Z,46.80
2022-12-06T22:10:28.388Z,50.20
2022-12-06T22:15:50.282Z,46.10
2022-12-06T22:21:18.471Z,45.90
2022-12-06T22:26:40.002Z,39.70
2022-12-06T22:32:01.799Z,38.70
2022-12-06T22:37:28.346Z,38.70
2022-12-06T22:42:50.601Z,30.60
2022-12-06T22:48:12.230Z,28.70
2022-12-06T22:53:34.058Z,24.90
2022-12-06T22:58:58.103Z,31.20
2022-12-06T23:04:20.083Z,35.90
2022-12-06T23:09:42.456Z,32.10
2022-12-06T23:15:05.325Z,37.60
2022-12-06T23:20:26.918Z,40.40
2022-12-06T23:25:49.198Z,42.40
2022-12-06T23:31:13.554Z,39.20
2022-12-06T23:36:36.368Z,41.80
2022-12-06T23:41:59.253Z,45.60
2022-12-06T23:47:21.078Z,48.70
2022-12-06T23:52:43.010Z,45.30
2022-12-06T23:58:05.091Z,43.70
